Time;durP1;ratioP1;P1;durP2;ratioP2;P2;SDS_P1;SDS_P2;PMS_P1;PMS_P2;Temp;Humidity;BMP_temperature;BMP_pressure;BME280_temperature;BME280_humidity;BME280_pressure;Samples;Min_cycle;Max_cycle;Signal;HPM_P1;HPM_P2
2023/09/12 00:00:05;;;;;;;4.80;4.30;;;28.20;95.70;;;;;;5015885;28;20551;-90
2023/09/12 00:02:31;;;;;;;4.95;4.45;;;28.20;95.60;;;;;;5016079;28;20644;-90
2023/09/12 00:04:57;;;;;;;4.40;4.00;;;28.20;95.70;;;;;;5012879;28;20174;-93
2023/09/12 00:07:22;;;;;;;4.57;4.10;;;28.20;95.70;;;;;;4997040;28;20162;-90
2023/09/12 00:10:03;;;;;;;5.07;4.20;;;28.20;95.70;;;;;;4996877;28;20206;-90
2023/09/12 00:12:32;;;;;;;4.50;4.10;;;28.20;95.70;;;;;;4997143;28;20568;-90
2023/09/12 00:14:58;;;;;;;4.63;4.22;;;28.20;95.80;;;;;;4996547;28;20171;-90
2023/09/12 00:17:26;;;;;;;4.80;3.90;;;28.10;95.70;;;;;;5016889;28;20183;-90
2023/09/12 00:20:06;;;;;;;4.13;3.83;;;28.20;95.80;;;;;;5015730;28;20209;-89
2023/09/12 00:22:32;;;;;;;4.57;4.10;;;28.10;95.70;;;;;;5015976;28;20185;-90
2023/09/12 00:25:00;;;;;;;4.20;3.80;;;28.20;95.80;;;;;;5015930;28;20174;-90
2023/09/12 00:27:29;;;;;;;4.43;4.03;;;28.10;95.70;;;;;;5016215;28;20590;-90
2023/09/12 00:29:55;;;;;;;4.55;4.05;;;28.10;95.70;;;;;;5016047;28;20197;-90
2023/09/12 00:32:24;;;;;;;4.53;3.60;;;28.10;95.70;;;;;;5016501;28;20204;-89
2023/09/12 00:34:52;;;;;;;4.22;3.90;;;28.10;95.70;;;;;;5015992;28;20228;-90
2023/09/12 00:37:18;;;;;;;4.55;3.90;;;28.10;95.80;;;;;;5016866;28;20154;-89
2023/09/12 00:39:47;;;;;;;3.97;3.65;;;28.10;95.80;;;;;;5016634;28;20158;-89
2023/09/12 00:42:15;;;;;;;3.80;3.50;;;28.10;95.80;;;;;;5015170;28;20602;-89
2023/09/12 00:44:44;;;;;;;3.95;3.65;;;28.00;95.80;;;;;;5013838;28;20190;-89
2023/09/12 00:47:13;;;;;;;4.57;3.80;;;28.00;95.70;;;;;;5014223;28;20188;-89
2023/09/12 00:49:45;;;;;;;4.18;3.85;;;28.00;95.80;;;;;;5015273;28;20768;-89
2023/09/12 00:52:11;;;;;;;4.03;3.72;;;28.10;95.80;;;;;;5014486;28;20192;-89
2023/09/12 00:54:38;;;;;;;4.10;3.80;;;28.00;95.80;;;;;;5017298;28;20185;-90
2023/09/12 00:57:06;;;;;;;3.70;3.25;;;28.00;95.70;;;;;;5018571;28;20184;-89
2023/09/12 00:59:37;;;;;;;3.78;3.47;;;28.00;95.80;;;;;;5019469;28;20178;-90
2023/09/12 01:02:03;;;;;;;3.83;3.53;;;28.00;95.80;;;;;;5018992;28;20174;-89
2023/09/12 01:04:29;;;;;;;3.90;3.60;;;28.00;95.80;;;;;;5019068;28;20182;-89
2023/09/12 01:06:55;;;;;;;3.65;3.35;;;28.00;95.80;;;;;;5018278;28;20240;-89
2023/09/12 01:09:43;;;;;;;3.67;3.37;;;27.90;95.80;;;;;;5018707;28;20262;-89
2023/09/12 01:12:09;;;;;;;4.03;3.63;;;28.00;95.90;;;;;;5019603;28;20369;-89
2023/09/12 01:14:34;;;;;;;4.07;3.67;;;27.90;95.80;;;;;;5019278;28;20236;-89
2023/09/12 01:17:03;;;;;;;3.72;3.30;;;27.90;95.80;;;;;;5018472;28;20493;-89
2023/09/12 01:19:29;;;;;;;4.35;3.45;;;27.90;95.90;;;;;;5019192;28;20178;-88
2023/09/12 01:22:14;;;;;;;3.80;3.50;;;27.90;95.80;;;;;;5020010;28;20181;-88
2023/09/12 01:24:59;;;;;;;3.85;3.55;;;27.90;95.80;;;;;;5018165;28;20280;-88
2023/09/12 01:27:34;;;;;;;3.65;3.35;;;27.80;95.70;;;;;;5018115;28;20247;-88
2023/09/12 01:30:08;;;;;;;3.80;3.50;;;27.80;95.70;;;;;;5018978;28;20189;-88
2023/09/12 01:32:34;;;;;;;4.60;3.40;;;27.80;95.70;;;;;;5019050;28;20165;-89
2023/09/12 01:35:02;;;;;;;3.70;3.30;;;27.80;95.70;;;;;;5019659;28;20247;-89
2023/09/12 01:37:29;;;;;;;3.90;3.50;;;27.80;95.60;;;;;;5018727;28;20590;-88
2023/09/12 01:39:56;;;;;;;3.70;3.40;;;27.80;95.60;;;;;;5015270;28;20174;-89
2023/09/12 01:42:23;;;;;;;3.30;2.92;;;27.80;95.60;;;;;;4999427;28;20186;-89
2023/09/12 01:44:58;;;;;;;3.83;3.45;;;27.70;95.60;;;;;;4998222;28;20190;-89
2023/09/12 01:47:25;;;;;;;3.23;3.00;;;27.80;95.60;;;;;;4998717;28;20170;-89
2023/09/12 01:50:00;;;;;;;3.20;2.90;;;27.80;95.80;;;;;;4999361;28;20194;-89
2023/09/12 01:52:26;;;;;;;3.15;2.85;;;27.70;95.50;;;;;;5019435;28;20252;-90
2023/09/12 01:54:53;;;;;;;3.30;3.00;;;27.70;95.50;;;;;;5018351;28;20197;-89
2023/09/12 01:57:20;;;;;;;3.75;3.33;;;27.70;95.50;;;;;;5018428;28;20327;-89
2023/09/12 01:59:49;;;;;;;3.20;3.00;;;27.70;95.50;;;;;;5017915;28;20475;-89
2023/09/12 02:02:18;;;;;;;3.38;3.08;;;27.70;95.50;;;;;;5018814;28;20185;-89
2023/09/12 02:05:10;;;;;;;3.30;3.00;;;27.70;95.50;;;;;;5017667;28;20231;-89
2023/09/12 02:07:42;;;;;;;3.17;2.88;;;27.70;95.50;;;;;;5012891;28;20335;-89
2023/09/12 02:10:11;;;;;;;3.37;3.07;;;27.70;95.50;;;;;;5018220;28;20169;-89
2023/09/12 02:12:41;;;;;;;3.35;3.05;;;27.70;95.50;;;;;;5018002;28;20223;-89
2023/09/12 02:15:16;;;;;;;3.45;3.15;;;27.70;95.50;;;;;;5018277;28;20162;-89
2023/09/12 02:17:44;;;;;;;3.35;3.05;;;27.70;95.50;;;;;;5017565;28;20276;-89
2023/09/12 02:20:13;;;;;;;2.80;2.60;;;27.70;95.50;;;;;;5017956;28;20177;-89
2023/09/12 02:22:39;;;;;;;2.88;2.67;;;27.60;95.40;;;;;;5018330;28;20248;-89
2023/09/12 02:25:06;;;;;;;2.90;2.70;;;27.60;95.50;;;;;;5017722;28;20166;-89
2023/09/12 02:27:35;;;;;;;3.25;2.95;;;27.60;95.40;;;;;;5018169;28;20165;-89
2023/09/12 02:30:07;;;;;;;3.30;3.00;;;27.60;95.40;;;;;;5000562;28;20159;-89
2023/09/12 02:32:35;;;;;;;3.07;2.80;;;27.60;95.40;;;;;;5018079;28;20177;-88
2023/09/12 02:35:02;;;;;;;3.10;2.80;;;27.60;95.40;;;;;;5018219;28;20173;-89
2023/09/12 02:37:30;;;;;;;3.03;2.73;;;27.60;95.40;;;;;;5018317;28;20174;-89
2023/09/12 02:39:59;;;;;;;3.30;3.00;;;27.60;95.50;;;;;;5017956;28;20185;-89
2023/09/12 02:42:25;;;;;;;3.00;2.70;;;27.50;95.50;;;;;;5017958;28;20355;-89
2023/09/12 02:44:52;;;;;;;3.33;3.03;;;27.50;95.40;;;;;;5023498;28;20189;-90
2023/09/12 02:47:17;;;;;;;3.40;3.10;;;27.50;95.40;;;;;;5039781;28;20165;-89
2023/09/12 02:49:43;;;;;;;3.03;2.83;;;27.60;95.50;;;;;;5036466;28;20276;-89
2023/09/12 02:52:12;;;;;;;3.50;3.20;;;27.50;95.50;;;;;;5018196;28;20181;-89
2023/09/12 02:54:38;;;;;;;3.40;3.10;;;27.50;95.50;;;;;;5017890;28;20190;-89
2023/09/12 02:57:27;;;;;;;3.47;3.20;;;27.50;95.50;;;;;;5013742;28;20186;-89
2023/09/12 02:59:55;;;;;;;3.20;2.70;;;27.50;95.50;;;;;;4998227;28;20259;-89
2023/09/12 03:02:23;;;;;;;3.90;2.83;;;27.50;95.50;;;;;;4997511;28;20178;-89
2023/09/12 03:04:52;;;;;;;3.47;3.17;;;27.50;95.50;;;;;;5008357;28;20182;-89
2023/09/12 03:07:21;;;;;;;3.50;3.20;;;27.50;95.40;;;;;;5017403;28;20185;-89
2023/09/12 03:09:50;;;;;;;4.13;3.00;;;27.50;95.50;;;;;;5017415;28;20213;-90
2023/09/12 03:12:16;;;;;;;3.53;3.23;;;27.50;95.50;;;;;;5017495;28;20278;-89
2023/09/12 03:14:41;;;;;;;3.40;3.10;;;27.40;95.50;;;;;;5017919;28;20636;-89
2023/09/12 03:17:07;;;;;;;3.80;3.00;;;27.40;95.50;;;;;;5016104;28;20284;-89
2023/09/12 03:19:33;;;;;;;3.17;2.88;;;27.40;95.50;;;;;;5017855;28;20494;-89
2023/09/12 03:22:01;;;;;;;3.03;2.80;;;27.40;95.50;;;;;;5017810;28;20173;-89
2023/09/12 03:24:31;;;;;;;3.07;2.83;;;27.40;95.60;;;;;;5017570;28;20193;-89
2023/09/12 03:27:09;;;;;;;3.30;3.00;;;27.40;95.50;;;;;;5016087;28;20178;-89
2023/09/12 03:29:35;;;;;;;3.47;3.17;;;27.40;95.50;;;;;;5015919;28;20217;-89
2023/09/12 03:32:03;;;;;;;3.50;3.20;;;27.40;95.50;;;;;;5015204;28;20204;-89
2023/09/12 03:34:32;;;;;;;3.83;3.03;;;27.40;95.50;;;;;;5015947;28;20213;-89
2023/09/12 03:37:00;;;;;;;3.40;3.10;;;27.40;95.50;;;;;;5015747;28;20174;-89
2023/09/12 03:39:28;;;;;;;3.40;3.10;;;27.40;95.50;;;;;;5015499;28;20181;-89
2023/09/12 03:41:54;;;;;;;3.30;3.00;;;27.40;95.50;;;;;;5015591;28;20288;-89
2023/09/12 03:44:19;;;;;;;3.93;3.57;;;27.40;95.40;;;;;;5015261;28;20288;-89
2023/09/12 03:46:54;;;;;;;3.33;2.93;;;27.30;95.40;;;;;;5015627;28;20289;-89
2023/09/12 03:49:23;;;;;;;3.47;3.10;;;27.30;95.40;;;;;;5015232;28;20204;-89
2023/09/12 03:51:51;;;;;;;3.17;2.87;;;27.30;95.40;;;;;;5015361;28;20177;-88
2023/09/12 03:54:19;;;;;;;3.40;3.10;;;27.30;95.50;;;;;;5016665;28;20187;-88
2023/09/12 03:56:47;;;;;;;3.50;3.20;;;27.30;95.40;;;;;;5015830;28;20174;-88
2023/09/12 03:59:16;;;;;;;4.30;3.30;;;27.30;95.40;;;;;;5016238;28;20181;-89
2023/09/12 04:01:44;;;;;;;3.80;3.40;;;27.30;95.40;;;;;;5017576;28;20181;-89
2023/09/12 04:04:09;;;;;;;3.17;2.73;;;27.30;95.50;;;;;;5016052;28;20355;-89
2023/09/12 04:06:41;;;;;;;3.40;3.10;;;27.30;95.50;;;;;;5016923;28;20177;-89
2023/09/12 04:09:09;;;;;;;3.27;2.97;;;27.30;95.50;;;;;;5016344;28;20208;-89
2023/09/12 04:11:44;;;;;;;4.90;3.53;;;27.20;95.40;;;;;;5016407;28;20166;-89
2023/09/12 04:14:21;;;;;;;3.50;3.20;;;27.20;95.50;;;;;;5017019;28;20188;-89
2023/09/12 04:16:49;;;;;;;3.67;3.27;;;27.20;95.50;;;;;;5015724;28;20236;-89
2023/09/12 04:19:16;;;;;;;3.23;2.93;;;27.20;95.40;;;;;;5015055;28;20197;-89
2023/09/12 04:21:48;;;;;;;4.67;3.07;;;27.20;95.50;;;;;;5014644;28;20192;-89
2023/09/12 04:24:13;;;;;;;4.70;3.20;;;27.20;95.40;;;;;;5013211;28;20190;-89
2023/09/12 04:26:43;;;;;;;3.63;3.10;;;27.20;95.40;;;;;;5013974;28;20749;-89
2023/09/12 04:29:12;;;;;;;3.90;3.30;;;27.20;95.40;;;;;;5013099;28;20610;-89
2023/09/12 04:31:37;;;;;;;3.40;3.10;;;27.20;95.50;;;;;;5013231;28;20181;-89
2023/09/12 04:34:03;;;;;;;3.63;3.20;;;27.20;95.50;;;;;;5020266;28;20571;-89
2023/09/12 04:36:32;;;;;;;3.20;3.00;;;27.20;95.50;;;;;;5015674;28;20273;-89
2023/09/12 04:38:58;;;;;;;3.77;3.47;;;27.20;95.50;;;;;;5031885;28;20196;-89
2023/09/12 04:41:26;;;;;;;4.27;3.40;;;27.10;95.30;;;;;;5015615;28;20541;-89
2023/09/12 04:43:54;;;;;;;4.47;3.20;;;27.20;95.40;;;;;;5015713;28;20242;-89
2023/09/12 04:46:25;;;;;;;3.20;2.90;;;27.10;95.40;;;;;;5014823;28;20201;-88
2023/09/12 04:48:51;;;;;;;3.67;3.23;;;27.10;95.40;;;;;;5029665;28;20209;-89
2023/09/12 04:51:27;;;;;;;3.97;3.57;;;27.10;95.40;;;;;;5014651;28;20185;-90
2023/09/12 04:54:03;;;;;;;4.83;3.50;;;27.10;95.40;;;;;;5015105;28;20223;-90
2023/09/12 04:56:44;;;;;;;3.80;3.50;;;27.10;95.40;;;;;;5014851;28;20536;-91
2023/09/12 04:59:27;;;;;;;4.17;3.53;;;27.10;95.40;;;;;;5013783;28;20187;-91
2023/09/12 05:01:56;;;;;;;3.10;2.90;;;27.10;95.40;;;;;;5014457;28;20539;-90
2023/09/12 05:04:21;;;;;;;4.30;3.33;;;27.10;95.40;;;;;;5014576;28;20178;-90
2023/09/12 05:06:47;;;;;;;4.90;3.63;;;27.10;95.40;;;;;;5012702;28;20184;-90
2023/09/12 05:09:21;;;;;;;3.50;3.20;;;27.10;95.40;;;;;;5012741;28;20208;-90
2023/09/12 05:11:46;;;;;;;3.80;3.43;;;27.10;95.40;;;;;;5013345;28;20166;-90
2023/09/12 05:14:12;;;;;;;3.73;3.40;;;27.00;95.40;;;;;;5013558;28;20261;-90
2023/09/12 05:16:56;;;;;;;3.70;3.40;;;27.00;95.40;;;;;;5013972;28;20796;-90
2023/09/12 05:19:34;;;;;;;3.53;3.17;;;27.00;95.40;;;;;;5012445;28;20181;-90
2023/09/12 05:22:00;;;;;;;3.87;3.47;;;27.00;95.40;;;;;;5013887;28;20648;-90
2023/09/12 05:24:28;;;;;;;3.40;3.10;;;27.00;95.40;;;;;;5012629;28;20200;-90
2023/09/12 05:26:57;;;;;;;3.80;3.50;;;27.00;95.40;;;;;;5011469;28;20261;-90
2023/09/12 05:29:51;;;;;;;3.60;3.30;;;27.00;95.40;;;;;;5010894;28;20241;-90
2023/09/12 05:32:37;;;;;;;4.00;3.23;;;27.00;95.50;;;;;;5010644;28;20186;-89
2023/09/12 05:35:28;;;;;;;3.67;3.37;;;27.00;95.40;;;;;;5010830;28;20177;-90
2023/09/12 05:38:03;;;;;;;3.90;3.60;;;27.00;95.50;;;;;;5009589;28;20273;-90
2023/09/12 05:40:35;;;;;;;4.40;3.60;;;27.00;95.40;;;;;;5012076;28;20338;-89
2023/09/12 05:43:03;;;;;;;4.13;3.73;;;26.90;95.70;;;;;;5013762;28;20622;-89
2023/09/12 05:45:32;;;;;;;4.17;3.70;;;26.90;95.50;;;;;;5009908;28;20193;-90
2023/09/12 05:48:02;;;;;;;3.90;3.50;;;26.90;95.50;;;;;;5006295;28;20419;-90
2023/09/12 05:50:29;;;;;;;4.97;3.50;;;26.90;95.40;;;;;;5006421;28;20181;-89
2023/09/12 05:52:57;;;;;;;5.50;3.90;;;26.90;95.50;;;;;;5005588;28;20174;-89
2023/09/12 05:55:26;;;;;;;4.17;3.20;;;26.90;95.40;;;;;;5005536;28;20170;-90
2023/09/12 05:57:54;;;;;;;4.27;3.87;;;26.90;95.50;;;;;;5004945;28;20256;-89
2023/09/12 06:00:21;;;;;;;4.30;3.70;;;26.90;95.40;;;;;;5005031;28;20236;-90
2023/09/12 06:03:02;;;;;;;4.63;3.80;;;26.90;95.40;;;;;;5008446;28;20267;-90
2023/09/12 06:05:43;;;;;;;3.90;3.60;;;26.90;95.40;;;;;;5009210;28;20184;-89
2023/09/12 06:08:11;;;;;;;4.30;3.47;;;26.90;95.50;;;;;;5008041;28;20487;-90
2023/09/12 06:10:40;;;;;;;4.83;3.70;;;26.80;95.40;;;;;;5011860;28;20181;-90
2023/09/12 06:13:21;;;;;;;4.50;3.80;;;26.90;95.50;;;;;;5008879;28;20185;-89
2023/09/12 06:15:53;;;;;;;4.37;3.70;;;26.80;95.70;;;;;;5008060;28;20173;-90
2023/09/12 06:18:34;;;;;;;6.00;3.80;;;26.80;95.50;;;;;;5008302;28;20201;-89
2023/09/12 06:21:04;;;;;;;4.20;3.80;;;26.80;95.40;;;;;;5006072;28;20380;-90
2023/09/12 06:23:38;;;;;;;4.17;3.77;;;26.80;95.40;;;;;;5004813;28;20174;-89
2023/09/12 06:26:17;;;;;;;4.80;3.70;;;26.80;95.50;;;;;;5005756;28;20184;-89
2023/09/12 06:29:07;;;;;;;4.37;3.80;;;26.80;95.50;;;;;;5006663;28;20460;-89
2023/09/12 06:31:36;;;;;;;6.17;4.23;;;26.80;95.50;;;;;;5007753;28;20493;-89
2023/09/12 06:34:11;;;;;;;4.93;3.60;;;26.80;95.50;;;;;;5008836;28;20188;-90
2023/09/12 06:36:44;;;;;;;5.10;3.80;;;26.80;95.50;;;;;;5009974;28;20705;-90
2023/09/12 06:39:46;;;;;;;4.13;3.73;;;26.80;95.50;;;;;;5010147;28;20382;-90
2023/09/12 06:42:14;;;;;;;4.57;4.03;;;26.80;95.50;;;;;;5023249;28;20175;-89
2023/09/12 06:44:40;;;;;;;4.07;3.67;;;26.80;95.50;;;;;;5007918;28;20228;-90
2023/09/12 06:47:06;;;;;;;4.93;3.97;;;26.80;95.50;;;;;;5017013;28;20189;-89
2023/09/12 06:49:36;;;;;;;5.73;4.00;;;26.80;95.50;;;;;;5013970;28;20219;-89
2023/09/12 06:52:01;;;;;;;4.97;3.50;;;26.80;95.60;;;;;;5008274;28;20172;-89
2023/09/12 06:54:27;;;;;;;4.60;3.83;;;26.80;95.60;;;;;;5002959;28;20170;-89
2023/09/12 06:56:52;;;;;;;5.67;3.70;;;26.80;95.60;;;;;;5005671;28;20173;-89
2023/09/12 06:59:18;;;;;;;6.20;3.70;;;26.80;95.60;;;;;;5002058;28;20567;-89
2023/09/12 07:01:47;;;;;;;3.80;3.50;;;26.80;95.50;;;;;;5003318;28;20581;-90
2023/09/12 07:04:25;;;;;;;5.30;4.00;;;26.80;95.60;;;;;;5006592;28;20263;-89
2023/09/12 07:06:54;;;;;;;4.90;3.87;;;26.70;95.60;;;;;;5004504;28;20580;-89
2023/09/12 07:09:23;;;;;;;4.00;3.60;;;26.80;95.60;;;;;;5018673;28;20202;-89
2023/09/12 07:12:17;;;;;;;4.07;3.77;;;26.70;95.60;;;;;;5004046;28;20506;-89
2023/09/12 07:14:46;;;;;;;7.73;4.20;;;26.70;95.60;;;;;;5022277;28;20178;-90
2023/09/12 07:17:12;;;;;;;4.67;3.90;;;26.70;95.60;;;;;;4989843;28;20166;-89
2023/09/12 07:19:38;;;;;;;3.90;3.60;;;26.70;95.60;;;;;;5005578;28;20170;-89
2023/09/12 07:22:06;;;;;;;4.27;3.87;;;26.70;95.60;;;;;;5005859;28;20454;-89
2023/09/12 07:24:34;;;;;;;4.83;3.80;;;26.70;95.60;;;;;;5006401;28;20169;-90
2023/09/12 07:27:24;;;;;;;3.90;3.60;;;26.70;95.60;;;;;;5006905;28;20450;-89
2023/09/12 07:29:53;;;;;;;4.10;3.70;;;26.70;95.60;;;;;;5004830;28;20507;-90
2023/09/12 07:32:27;;;;;;;4.23;3.83;;;26.70;95.60;;;;;;5004987;28;20781;-90
2023/09/12 07:34:56;;;;;;;4.07;3.67;;;26.60;95.60;;;;;;5008891;28;20283;-90
2023/09/12 07:37:42;;;;;;;4.33;3.93;;;26.70;95.70;;;;;;5008278;28;20174;-90
2023/09/12 07:40:11;;;;;;;5.10;3.83;;;26.60;95.60;;;;;;5020710;28;20177;-90
2023/09/12 07:42:36;;;;;;;4.30;3.90;;;26.70;95.60;;;;;;5005873;28;20264;-89
2023/09/12 07:45:03;;;;;;;5.47;4.17;;;26.70;95.60;;;;;;5004102;28;20185;-89
2023/09/12 07:47:28;;;;;;;4.83;3.67;;;26.70;95.60;;;;;;5003579;28;20529;-89
2023/09/12 07:49:54;;;;;;;4.37;3.90;;;26.70;95.60;;;;;;5003714;28;20393;-89
2023/09/12 07:52:20;;;;;;;5.37;3.63;;;26.70;95.70;;;;;;5003028;28;20564;-90
2023/09/12 07:55:02;;;;;;;4.17;3.53;;;26.70;95.70;;;;;;5005218;28;20350;-90
2023/09/12 07:57:43;;;;;;;4.50;3.73;;;26.60;95.60;;;;;;5004718;28;20200;-90
2023/09/12 08:00:40;;;;;;;3.77;3.20;;;26.60;95.60;;;;;;5004519;28;20280;-89
2023/09/12 08:03:07;;;;;;;3.97;3.50;;;26.70;95.60;;;;;;5002632;28;20281;-90
2023/09/12 08:05:32;;;;;;;4.53;3.77;;;26.60;95.60;;;;;;5003574;28;20173;-89
2023/09/12 08:07:58;;;;;;;3.93;3.50;;;26.60;95.60;;;;;;5002829;28;20185;-90
2023/09/12 08:10:23;;;;;;;3.90;3.50;;;26.70;95.60;;;;;;5005946;28;20537;-90
2023/09/12 08:12:53;;;;;;;4.40;3.90;;;26.70;95.60;;;;;;5004838;28;20181;-89
2023/09/12 08:15:24;;;;;;;4.70;3.90;;;26.70;95.60;;;;;;5003482;28;20425;-89
2023/09/12 08:17:51;;;;;;;5.20;3.73;;;26.70;95.60;;;;;;5002335;28;20173;-89
2023/09/12 08:20:20;;;;;;;4.33;3.67;;;26.70;95.60;;;;;;5002180;28;20381;-90
2023/09/12 08:22:49;;;;;;;4.27;3.87;;;26.60;95.60;;;;;;5002595;28;20268;-90
2023/09/12 08:25:30;;;;;;;4.53;3.40;;;26.60;95.50;;;;;;4999084;28;20257;-90
2023/09/12 08:27:55;;;;;;;3.97;3.57;;;26.70;95.60;;;;;;5003982;28;20276;-89
2023/09/12 08:30:22;;;;;;;4.80;3.60;;;26.60;95.60;;;;;;5005425;28;20291;-90
2023/09/12 08:33:03;;;;;;;4.40;4.00;;;26.70;95.60;;;;;;5002932;28;20243;-89
2023/09/12 08:35:35;;;;;;;4.60;3.57;;;26.60;95.50;;;;;;5002872;28;20451;-89
2023/09/12 08:38:05;;;;;;;3.87;3.43;;;26.70;95.50;;;;;;5003979;28;20182;-89
2023/09/12 08:40:35;;;;;;;5.17;3.63;;;26.70;95.50;;;;;;5005473;28;20200;-89
2023/09/12 08:43:20;;;;;;;4.87;3.97;;;26.70;95.50;;;;;;5005745;28;20455;-89
2023/09/12 08:45:47;;;;;;;4.33;3.60;;;26.70;95.50;;;;;;5005876;28;20197;-89
2023/09/12 08:48:31;;;;;;;4.60;3.77;;;26.70;95.50;;;;;;5007335;28;20213;-89
2023/09/12 08:51:04;;;;;;;3.63;3.33;;;26.70;95.60;;;;;;5007273;28;20174;-90
2023/09/12 08:53:30;;;;;;;4.13;3.67;;;26.70;95.60;;;;;;5007515;28;20169;-90
2023/09/12 08:56:00;;;;;;;3.63;3.33;;;26.80;95.70;;;;;;5006760;28;20303;-89
2023/09/12 08:58:47;;;;;;;4.43;3.77;;;26.80;95.50;;;;;;5006150;28;20165;-90
2023/09/12 09:01:18;;;;;;;4.10;3.70;;;26.80;95.40;;;;;;5007193;28;20174;-90
2023/09/12 09:03:50;;;;;;;3.70;3.37;;;26.80;95.40;;;;;;5003571;28;20192;-90
2023/09/12 09:06:16;;;;;;;4.10;3.70;;;26.80;95.30;;;;;;5002703;28;20178;-89
2023/09/12 09:08:59;;;;;;;4.17;3.50;;;26.80;95.30;;;;;;5003649;28;20443;-90
2023/09/12 09:11:28;;;;;;;4.13;3.70;;;26.80;95.30;;;;;;5001827;28;20559;-89
2023/09/12 09:14:07;;;;;;;5.32;3.78;;;26.80;95.30;;;;;;5005368;28;20389;-90
2023/09/12 09:16:38;;;;;;;4.27;3.70;;;26.90;95.30;;;;;;5007270;28;20173;-90
2023/09/12 09:19:19;;;;;;;3.63;3.33;;;26.90;95.30;;;;;;5007006;28;20173;-90
2023/09/12 09:22:05;;;;;;;3.80;3.50;;;27.10;94.80;;;;;;5008857;28;20399;-90
2023/09/12 09:24:31;;;;;;;4.07;3.70;;;27.40;93.80;;;;;;5007759;28;20646;-90
2023/09/12 09:27:41;;;;;;;3.95;3.65;;;27.60;93.20;;;;;;5005897;28;20288;-89
2023/09/12 09:30:13;;;;;;;3.70;3.40;;;27.70;92.80;;;;;;5011011;28;20302;-89
2023/09/12 09:32:39;;;;;;;4.53;3.53;;;27.80;92.50;;;;;;5008962;28;20465;-89
2023/09/12 09:35:10;;;;;;;3.65;3.30;;;27.90;92.30;;;;;;5038568;28;20185;-90
2023/09/12 09:37:45;;;;;;;3.75;3.45;;;27.90;92.10;;;;;;5009654;28;20237;-90
2023/09/12 09:40:29;;;;;;;3.95;3.63;;;27.90;92.00;;;;;;5013081;28;20180;-90
2023/09/12 09:43:25;;;;;;;3.63;3.30;;;27.80;92.10;;;;;;5010396;28;20262;-90
2023/09/12 09:45:50;;;;;;;3.70;3.40;;;27.70;92.70;;;;;;5008844;28;20507;-90
2023/09/12 09:48:27;;;;;;;4.15;3.58;;;27.70;92.50;;;;;;5008510;28;20212;-90
2023/09/12 09:51:04;;;;;;;4.28;3.63;;;27.70;92.50;;;;;;5008025;28;20453;-90
2023/09/12 09:53:32;;;;;;;4.00;3.50;;;27.60;92.80;;;;;;5008498;28;20173;-91
2023/09/12 09:56:15;;;;;;;3.95;3.50;;;27.60;93.10;;;;;;5006344;28;20184;-90
2023/09/12 09:59:06;;;;;;;3.55;3.25;;;27.50;93.40;;;;;;5009138;28;20182;-90
2023/09/12 10:01:46;;;;;;;3.58;3.28;;;27.40;93.70;;;;;;5008531;28;20232;-90
2023/09/12 10:04:15;;;;;;;3.45;3.15;;;27.40;93.80;;;;;;5008192;28;20208;-90
2023/09/12 10:06:47;;;;;;;5.07;3.58;;;27.50;93.60;;;;;;5008655;28;20234;-90
2023/09/12 10:09:30;;;;;;;3.33;3.03;;;27.60;93.60;;;;;;5006935;28;20458;-90
2023/09/12 10:11:59;;;;;;;3.67;3.38;;;27.70;92.90;;;;;;5008530;28;20170;-91
2023/09/12 10:14:27;;;;;;;3.78;3.30;;;27.80;92.80;;;;;;5008721;28;20180;-90
2023/09/12 10:17:16;;;;;;;3.55;3.25;;;27.70;92.90;;;;;;5006477;28;20166;-90
2023/09/12 10:19:58;;;;;;;4.07;3.45;;;27.80;92.80;;;;;;5016015;28;20245;-90
2023/09/12 10:22:30;;;;;;;3.70;3.35;;;27.90;92.60;;;;;;5005034;28;20182;-90
2023/09/12 10:25:00;;;;;;;3.33;3.03;;;27.90;92.60;;;;;;5006462;28;20700;-90
2023/09/12 10:27:33;;;;;;;3.60;3.20;;;27.90;92.60;;;;;;5006884;28;20273;-90
2023/09/12 10:30:06;;;;;;;3.47;3.17;;;27.80;92.70;;;;;;5007173;28;20205;-90
2023/09/12 10:32:36;;;;;;;3.50;3.20;;;27.80;92.80;;;;;;5006995;28;20497;-90
2023/09/12 10:35:14;;;;;;;3.60;3.30;;;27.80;92.80;;;;;;5007833;28;20162;-90
2023/09/12 10:37:53;;;;;;;3.30;3.00;;;27.80;92.90;;;;;;5009004;28;20212;-90
2023/09/12 10:40:22;;;;;;;2.95;2.75;;;27.70;92.90;;;;;;5005968;28;20177;-90
2023/09/12 10:42:49;;;;;;;3.72;3.42;;;27.70;93.00;;;;;;5004621;28;20524;-90
2023/09/12 10:45:16;;;;;;;3.67;3.38;;;27.70;93.00;;;;;;5006858;28;20205;-89
2023/09/12 10:47:42;;;;;;;3.88;3.38;;;27.80;93.10;;;;;;5004115;28;20243;-91
2023/09/12 10:50:08;;;;;;;3.50;3.20;;;27.80;93.00;;;;;;5003518;28;20204;-90
2023/09/12 10:52:39;;;;;;;3.35;3.03;;;27.80;93.00;;;;;;5003621;28;20271;-90
2023/09/12 10:55:09;;;;;;;3.42;3.10;;;27.80;93.00;;;;;;5004541;28;20635;-90
2023/09/12 10:57:57;;;;;;;3.55;3.25;;;27.80;93.00;;;;;;5003035;28;20169;-90
2023/09/12 11:00:23;;;;;;;3.33;3.03;;;27.90;93.20;;;;;;5028058;28;20276;-90
2023/09/12 11:02:49;;;;;;;3.50;3.17;;;27.90;93.10;;;;;;5002928;28;20264;-90
2023/09/12 11:05:39;;;;;;;3.25;2.95;;;27.90;93.10;;;;;;5000046;28;20189;-90
2023/09/12 11:08:08;;;;;;;3.15;2.92;;;27.90;93.30;;;;;;5002155;28;20177;-90
2023/09/12 11:10:37;;;;;;;3.53;3.22;;;27.90;93.10;;;;;;5003986;28;20176;-90
2023/09/12 11:13:05;;;;;;;3.50;3.20;;;27.90;93.20;;;;;;5004520;28;20169;-90
2023/09/12 11:15:34;;;;;;;3.50;3.20;;;27.90;93.20;;;;;;5001648;28;20766;-88
2023/09/12 11:18:04;;;;;;;3.72;3.10;;;27.90;93.20;;;;;;5004529;28;20177;-90
2023/09/12 11:20:53;;;;;;;4.18;3.65;;;27.90;93.20;;;;;;5001136;28;20170;-90
2023/09/12 11:23:19;;;;;;;5.80;3.58;;;27.90;93.20;;;;;;5002341;28;20763;-90
2023/09/12 11:25:45;;;;;;;5.40;2.90;;;27.90;93.20;;;;;;4999845;28;20173;-90
2023/09/12 11:28:11;;;;;;;4.18;3.15;;;27.90;93.20;;;;;;4998114;28;20181;-90
2023/09/12 11:30:55;;;;;;;3.40;3.10;;;27.90;93.30;;;;;;5000145;28;20178;-90
2023/09/12 11:33:23;;;;;;;4.47;3.38;;;27.90;93.30;;;;;;5000808;28;20251;-90
2023/09/12 11:36:01;;;;;;;4.38;3.15;;;27.90;93.40;;;;;;5000528;28;20177;-90
2023/09/12 11:38:31;;;;;;;3.15;2.85;;;27.90;93.40;;;;;;4999189;28;20452;-90
2023/09/12 11:40:58;;;;;;;3.40;3.10;;;27.90;93.40;;;;;;4999349;28;20460;-90
2023/09/12 11:43:25;;;;;;;4.80;3.28;;;27.90;93.40;;;;;;5001379;28;20173;-90
2023/09/12 11:45:52;;;;;;;3.72;3.22;;;27.90;93.50;;;;;;5002723;28;20185;-90
2023/09/12 11:48:21;;;;;;;3.72;3.35;;;27.90;93.50;;;;;;5000028;28;20186;-90
2023/09/12 11:50:54;;;;;;;3.47;2.88;;;27.90;93.50;;;;;;5005058;28;20227;-90
2023/09/12 11:53:22;;;;;;;3.45;3.13;;;27.90;93.50;;;;;;5001891;28;20582;-90
2023/09/12 11:55:54;;;;;;;3.70;3.00;;;27.90;93.80;;;;;;5001892;28;20166;-90
2023/09/12 11:58:27;;;;;;;3.60;3.30;;;27.90;93.40;;;;;;5001127;28;20200;-90
2023/09/12 12:00:54;;;;;;;3.53;3.20;;;28.00;93.40;;;;;;4998420;28;20184;-90
2023/09/12 12:03:30;;;;;;;3.38;3.08;;;28.00;93.40;;;;;;4999412;28;20606;-90
2023/09/12 12:05:56;;;;;;;3.63;3.33;;;28.00;93.40;;;;;;5000136;28;20698;-90
2023/09/12 12:08:22;;;;;;;3.80;3.40;;;28.00;93.50;;;;;;4999241;28;20469;-90
2023/09/12 12:11:01;;;;;;;3.58;3.28;;;28.00;93.50;;;;;;4999166;28;20333;-90
2023/09/12 12:13:27;;;;;;;4.05;3.28;;;28.00;93.50;;;;;;5008001;28;20185;-90
2023/09/12 12:15:59;;;;;;;3.83;3.03;;;28.00;93.50;;;;;;4999233;28;20178;-90
2023/09/12 12:18:31;;;;;;;3.78;3.10;;;28.00;93.50;;;;;;5000039;28;20402;-89
2023/09/12 12:20:59;;;;;;;3.33;3.03;;;28.00;93.50;;;;;;4999575;28;20330;-90
2023/09/12 12:23:25;;;;;;;3.47;2.80;;;28.00;93.50;;;;;;4996771;28;20173;-90
2023/09/12 12:25:51;;;;;;;3.55;3.25;;;28.00;93.50;;;;;;4998467;28;20181;-90
2023/09/12 12:28:21;;;;;;;3.30;3.00;;;28.10;93.60;;;;;;5000817;28;20513;-90
2023/09/12 12:30:52;;;;;;;3.50;2.83;;;28.10;93.60;;;;;;4999309;28;20197;-90
2023/09/12 12:33:18;;;;;;;3.30;3.00;;;28.10;93.60;;;;;;4999687;28;20166;-90
2023/09/12 12:35:47;;;;;;;3.30;3.00;;;28.10;93.60;;;;;;4999922;28;20508;-90
2023/09/12 12:38:16;;;;;;;4.28;3.05;;;28.10;93.60;;;;;;5001083;28;20241;-89
2023/09/12 12:40:45;;;;;;;3.60;3.30;;;28.10;93.60;;;;;;4999899;28;20478;-90
2023/09/12 12:43:20;;;;;;;3.75;3.38;;;28.10;93.60;;;;;;5000598;28;20181;-91
2023/09/12 12:45:54;;;;;;;3.20;2.90;;;28.10;93.60;;;;;;5000798;28;20349;-91
2023/09/12 12:48:43;;;;;;;3.63;3.30;;;28.10;93.70;;;;;;5000732;28;20173;-91
2023/09/12 12:51:23;;;;;;;2.92;2.65;;;28.10;93.60;;;;;;5005274;28;20371;-90
2023/09/12 12:53:54;;;;;;;3.40;3.10;;;28.10;93.70;;;;;;5005170;28;20173;-88
2023/09/12 12:56:28;;;;;;;3.38;3.08;;;28.10;93.70;;;;;;5005489;28;20189;-88
2023/09/12 12:59:00;;;;;;;2.90;2.70;;;28.10;93.70;;;;;;5004749;28;20177;-89
2023/09/12 13:01:26;;;;;;;3.13;2.83;;;28.10;93.70;;;;;;5006470;28;20209;-90
2023/09/12 13:04:12;;;;;;;3.50;3.20;;;28.10;93.70;;;;;;5008054;28;20237;-90
2023/09/12 13:06:41;;;;;;;2.90;2.70;;;28.10;93.80;;;;;;5006297;28;20181;-90
2023/09/12 13:09:08;;;;;;;3.03;2.83;;;28.10;93.70;;;;;;5007681;28;20437;-90